Time;durP1;ratioP1;P1;durP2;ratioP2;P2;SDS_P1;SDS_P2;PMS_P1;PMS_P2;Temp;Humidity;BMP_temperature;BMP_pressure;BME280_temperature;BME280_humidity;BME280_pressure;Samples;Min_cycle;Max_cycle;Signal;HPM_P1;HPM_P2
2021/07/20 00:01:52;;;;;;;21.33;10.00;;;15.40;99.90;;;;;;5028281;28;20460;-87
2021/07/20 00:04:19;;;;;;;18.47;9.30;;;15.40;99.90;;;;;;5055706;28;20500;-85
2021/07/20 00:06:47;;;;;;;20.43;9.00;;;15.30;99.90;;;;;;5068368;28;20448;-87
2021/07/20 00:09:15;;;;;;;19.87;8.80;;;15.30;99.90;;;;;;5051885;28;20482;-86
2021/07/20 00:11:41;;;;;;;17.17;8.30;;;15.30;99.90;;;;;;5048449;28;20433;-87
2021/07/20 00:14:08;;;;;;;16.37;8.20;;;15.30;99.90;;;;;;5051689;28;20479;-85
2021/07/20 00:16:36;;;;;;;17.73;9.30;;;15.30;99.90;;;;;;5068210;28;20855;-87
2021/07/20 00:19:03;;;;;;;17.50;8.60;;;15.30;99.90;;;;;;5055459;28;20473;-86
2021/07/20 00:21:30;;;;;;;18.93;9.03;;;15.20;99.90;;;;;;5052097;28;20466;-85
2021/07/20 00:23:58;;;;;;;21.33;10.40;;;15.20;99.90;;;;;;5051629;28;20479;-86
2021/07/20 00:26:25;;;;;;;17.73;9.57;;;15.20;99.90;;;;;;5054526;28;20520;-87
2021/07/20 00:28:52;;;;;;;16.23;8.67;;;15.20;99.90;;;;;;5062873;28;20527;-86
2021/07/20 00:31:19;;;;;;;16.17;8.13;;;15.20;99.90;;;;;;5069010;28;20452;-84
2021/07/20 00:33:46;;;;;;;18.03;8.80;;;15.10;99.90;;;;;;5069529;28;20444;-86
2021/07/20 00:36:13;;;;;;;19.10;8.70;;;15.10;99.90;;;;;;5051785;28;20895;-87
2021/07/20 00:38:39;;;;;;;17.10;8.50;;;15.10;99.90;;;;;;5063273;28;20515;-87
2021/07/20 00:41:08;;;;;;;17.20;8.50;;;15.10;99.90;;;;;;5069590;28;20475;-86
2021/07/20 00:43:35;;;;;;;16.90;8.30;;;15.10;99.90;;;;;;5050216;28;20456;-85
2021/07/20 00:46:02;;;;;;;18.27;8.70;;;15.10;99.90;;;;;;5063377;28;20444;-86
2021/07/20 00:48:29;;;;;;;20.03;10.27;;;15.10;99.90;;;;;;5064340;28;20481;-86
2021/07/20 00:50:56;;;;;;;18.83;9.00;;;15.10;99.90;;;;;;5047758;28;20463;-86
2021/07/20 00:53:24;;;;;;;18.43;8.03;;;15.10;99.90;;;;;;5056952;28;20806;-86
2021/07/20 00:55:51;;;;;;;16.30;8.27;;;15.10;99.90;;;;;;5067399;28;20468;-86
2021/07/20 00:58:20;;;;;;;15.63;7.90;;;15.10;99.90;;;;;;5067033;28;20507;-85
2021/07/20 01:00:49;;;;;;;16.33;8.00;;;15.10;99.90;;;;;;5047432;28;20457;-86
2021/07/20 01:03:16;;;;;;;17.40;8.90;;;15.10;99.90;;;;;;5046012;28;20851;-86
2021/07/20 01:05:44;;;;;;;20.23;9.60;;;15.10;99.90;;;;;;5046196;28;20511;-85
2021/07/20 01:08:11;;;;;;;18.00;9.30;;;15.10;99.90;;;;;;5049165;28;20514;-85
2021/07/20 01:10:42;;;;;;;18.57;9.90;;;15.10;99.90;;;;;;5068821;28;20472;-86
2021/07/20 01:13:11;;;;;;;17.83;8.80;;;15.10;99.90;;;;;;5072130;28;20471;-86
2021/07/20 01:15:39;;;;;;;21.10;9.97;;;15.10;99.90;;;;;;5077249;28;20483;-86
2021/07/20 01:18:07;;;;;;;19.20;9.90;;;15.10;99.90;;;;;;5058959;28;20500;-87
2021/07/20 01:20:34;;;;;;;20.80;9.40;;;15.10;99.90;;;;;;5057025;28;20654;-85
2021/07/20 01:23:06;;;;;;;23.73;9.47;;;15.10;99.90;;;;;;5060436;28;20489;-88
2021/07/20 01:25:36;;;;;;;19.20;9.97;;;15.20;99.90;;;;;;5058691;28;20480;-86
2021/07/20 01:28:05;;;;;;;21.40;9.40;;;15.20;99.90;;;;;;5061577;28;20683;-87
2021/07/20 01:30:35;;;;;;;23.10;10.60;;;15.20;99.90;;;;;;5046344;28;20511;-86
2021/07/20 01:33:04;;;;;;;18.90;9.80;;;15.20;99.90;;;;;;5070453;28;20440;-88
2021/07/20 01:35:32;;;;;;;18.17;9.57;;;15.20;99.90;;;;;;5030392;28;20556;-86
2021/07/20 01:37:59;;;;;;;18.33;9.23;;;15.20;99.90;;;;;;5027945;28;20576;-87
2021/07/20 01:40:27;;;;;;;21.73;10.67;;;15.30;99.90;;;;;;5043974;28;20516;-87
2021/07/20 01:42:58;;;;;;;20.30;10.60;;;15.30;99.90;;;;;;5044531;28;20441;-87
2021/07/20 01:45:29;;;;;;;21.00;10.23;;;15.30;99.90;;;;;;5053159;28;20510;-86
2021/07/20 01:47:57;;;;;;;19.23;9.83;;;15.30;99.90;;;;;;5067043;28;20452;-87
2021/07/20 01:50:26;;;;;;;19.07;9.87;;;15.30;99.90;;;;;;5051231;28;20437;-88
2021/07/20 01:52:54;;;;;;;19.70;9.47;;;15.30;99.90;;;;;;5056671;28;20528;-88
2021/07/20 01:55:24;;;;;;;16.43;8.60;;;15.30;99.90;;;;;;5053404;28;20503;-85
2021/07/20 01:57:51;;;;;;;21.00;9.77;;;15.30;99.90;;;;;;5054849;28;20496;-87
2021/07/20 02:00:21;;;;;;;21.67;10.87;;;15.20;99.90;;;;;;5056397;28;20464;-86
2021/07/20 02:03:12;;;;;;;22.13;9.50;;;15.20;99.90;;;;;;5062683;28;20508;-87
2021/07/20 02:08:31;;;;;;;20.30;9.20;;;15.20;99.90;;;;;;5027027;28;20422;-85
2021/07/20 02:11:02;;;;;;;18.93;11.67;;;15.10;99.90;;;;;;5027784;28;20481;-87
2021/07/20 02:13:38;;;;;;;16.60;8.13;;;15.10;99.90;;;;;;5046919;28;20447;-87
2021/07/20 02:16:07;;;;;;;22.27;10.57;;;15.10;99.90;;;;;;5064976;28;20584;-86
2021/07/20 02:18:34;;;;;;;19.13;10.37;;;15.00;99.90;;;;;;5062157;28;20488;-85
2021/07/20 02:21:05;;;;;;;21.73;10.57;;;15.00;99.90;;;;;;5063360;28;20475;-87
2021/07/20 02:23:32;;;;;;;21.10;9.47;;;15.00;99.90;;;;;;5063592;28;20448;-86
2021/07/20 02:26:00;;;;;;;19.30;9.47;;;15.00;99.90;;;;;;5061542;28;20448;-86
2021/07/20 02:28:29;;;;;;;20.90;10.60;;;15.00;99.90;;;;;;5059606;28;20517;-86
2021/07/20 02:30:58;;;;;;;18.80;9.80;;;14.90;99.90;;;;;;5066659;28;20456;-86
2021/07/20 02:33:26;;;;;;;20.10;10.17;;;14.90;99.90;;;;;;5062623;28;20979;-85
2021/07/20 02:35:54;;;;;;;20.80;10.30;;;14.90;99.90;;;;;;5053049;28;20516;-87
2021/07/20 02:38:21;;;;;;;21.93;10.40;;;14.90;99.90;;;;;;5054880;28;20511;-86
2021/07/20 02:40:50;;;;;;;23.57;10.47;;;14.80;99.90;;;;;;5058925;28;20453;-84
2021/07/20 02:43:19;;;;;;;19.10;9.93;;;14.80;99.90;;;;;;5063480;28;20470;-85
2021/07/20 02:45:47;;;;;;;18.60;8.90;;;14.80;99.90;;;;;;5074966;28;20468;-84
2021/07/20 02:48:16;;;;;;;21.07;9.73;;;14.80;99.90;;;;;;5032263;28;20973;-84
2021/07/20 02:50:45;;;;;;;20.20;10.47;;;14.70;99.90;;;;;;5031059;28;20473;-84
2021/07/20 02:53:15;;;;;;;22.50;11.67;;;14.70;99.90;;;;;;5064624;28;20466;-85
2021/07/20 02:55:42;;;;;;;24.07;10.20;;;14.70;99.90;;;;;;5056849;28;20467;-85
2021/07/20 02:58:09;;;;;;;20.50;10.47;;;14.70;99.90;;;;;;5044999;28;20483;-86
2021/07/20 03:00:46;;;;;;;29.80;10.50;;;14.70;99.90;;;;;;5045632;28;20952;-85
2021/07/20 03:03:20;;;;;;;19.70;10.27;;;14.70;99.90;;;;;;5057439;28;20481;-86
2021/07/20 03:06:52;;;;;;;21.50;9.63;;;14.70;99.90;;;;;;5046740;28;20463;-84
2021/07/20 03:09:36;;;;;;;21.63;9.83;;;14.70;99.90;;;;;;5043468;28;20440;-82
2021/07/20 03:12:07;;;;;;;21.50;11.70;;;14.70;99.90;;;;;;5046996;28;20950;-85
2021/07/20 03:14:35;;;;;;;21.17;10.30;;;14.70;99.90;;;;;;5064119;28;20486;-83
2021/07/20 03:17:06;;;;;;;20.07;9.40;;;14.60;99.90;;;;;;5065712;28;20444;-85
2021/07/20 03:19:34;;;;;;;21.90;10.13;;;14.60;99.90;;;;;;5063300;28;20550;-84
2021/07/20 03:22:05;;;;;;;18.93;9.83;;;14.60;99.90;;;;;;5054694;28;20531;-86
2021/07/20 03:24:36;;;;;;;21.80;9.93;;;14.60;99.90;;;;;;5046101;28;20551;-83
2021/07/20 03:27:04;;;;;;;21.67;10.10;;;14.60;99.90;;;;;;5045122;28;20553;-84
2021/07/20 03:29:32;;;;;;;22.93;10.80;;;14.60;99.90;;;;;;5044812;28;20473;-83
2021/07/20 03:32:44;;;;;;;21.10;11.70;;;14.70;99.90;;;;;;5048279;28;20505;-84
2021/07/20 03:38:08;;;;;;;23.80;10.63;;;14.60;99.90;;;;;;5044748;28;20572;-84
2021/07/20 03:41:07;;;;;;;20.47;10.90;;;14.60;99.90;;;;;;5044986;28;20465;-85
2021/07/20 03:43:35;;;;;;;21.40;9.80;;;14.60;99.90;;;;;;5054211;28;20447;-83
2021/07/20 03:46:08;;;;;;;21.63;10.20;;;14.60;99.90;;;;;;5064906;28;20480;-85
2021/07/20 03:48:42;;;;;;;21.17;11.10;;;14.60;99.90;;;;;;5048960;28;20502;-84
2021/07/20 03:53:56;;;;;;;21.83;11.50;;;14.60;99.90;;;;;;5050378;28;20447;-86
2021/07/20 03:56:25;;;;;;;21.20;10.17;;;14.60;99.90;;;;;;5054693;28;20901;-84
2021/07/20 03:58:55;;;;;;;20.07;11.00;;;14.70;99.90;;;;;;5044573;28;20548;-84
2021/07/20 04:01:24;;;;;;;24.30;10.60;;;14.70;99.90;;;;;;5041949;28;20465;-86
2021/07/20 04:03:53;;;;;;;23.00;11.23;;;14.70;99.90;;;;;;5056721;28;20519;-85
2021/07/20 04:06:23;;;;;;;22.67;11.20;;;14.70;99.90;;;;;;5065448;28;20448;-84
2021/07/20 04:08:52;;;;;;;20.43;10.90;;;14.70;99.90;;;;;;5058052;28;20525;-85
2021/07/20 04:11:20;;;;;;;20.93;10.50;;;14.80;99.90;;;;;;5045140;28;21119;-84
2021/07/20 04:14:20;;;;;;;22.33;10.70;;;14.70;99.90;;;;;;5059925;28;20447;-85
2021/07/20 04:16:57;;;;;;;20.70;11.60;;;14.80;99.90;;;;;;5068641;28;20479;-87
2021/07/20 04:19:34;;;;;;;;;;;;;;;;;;;;;
2021/07/20 04:22:09;;;;;;;20.37;10.80;;;14.80;99.90;;;;;;5047686;28;20893;-87
2021/07/20 04:24:36;;;;;;;22.70;11.90;;;14.80;99.90;;;;;;5045105;28;20473;-86
2021/07/20 04:27:04;;;;;;;21.67;10.90;;;14.70;99.90;;;;;;5069202;28;20455;-87
2021/07/20 04:29:33;;;;;;;19.73;11.23;;;14.80;99.90;;;;;;5057691;28;20476;-87
2021/07/20 04:32:04;;;;;;;25.30;10.80;;;14.80;99.90;;;;;;5061835;28;20472;-87
2021/07/20 04:34:33;;;;;;;20.43;10.80;;;14.80;99.90;;;;;;5073645;28;20575;-84
2021/07/20 04:37:00;;;;;;;23.23;9.57;;;14.80;99.90;;;;;;5043096;28;20961;-84
2021/07/20 04:39:28;;;;;;;19.67;9.60;;;14.80;99.90;;;;;;5041879;28;20491;-85
2021/07/20 04:41:55;;;;;;;19.77;10.33;;;14.80;99.90;;;;;;5044078;28;20462;-83
2021/07/20 04:44:29;;;;;;;25.20;11.83;;;14.80;99.90;;;;;;5048467;28;20995;-84
2021/07/20 04:47:02;;;;;;;23.17;10.10;;;14.80;99.90;;;;;;5056358;28;20451;-83
2021/07/20 04:49:30;;;;;;;24.03;12.30;;;14.80;99.90;;;;;;5064553;28;20444;-84
2021/07/20 04:51:59;;;;;;;23.77;12.00;;;14.80;99.90;;;;;;5062632;28;20455;-83
2021/07/20 04:54:27;;;;;;;19.57;11.10;;;14.90;99.90;;;;;;5057573;28;20477;-84
2021/07/20 04:56:54;;;;;;;20.73;10.93;;;15.00;99.90;;;;;;5061927;28;20455;-83
2021/07/20 04:59:21;;;;;;;19.40;11.03;;;15.10;99.90;;;;;;5061142;28;20491;-84
2021/07/20 05:01:49;;;;;;;23.10;11.87;;;15.10;99.90;;;;;;5051916;28;20451;-83
2021/07/20 05:04:18;;;;;;;24.97;13.13;;;15.20;99.90;;;;;;5050637;28;20547;-83
2021/07/20 05:06:48;;;;;;;22.70;11.30;;;15.30;99.90;;;;;;5047619;28;20463;-83
2021/07/20 05:09:15;;;;;;;22.17;12.10;;;15.40;99.90;;;;;;5066183;22;20496;-89
2021/07/20 05:11:42;;;;;;;23.30;11.10;;;15.40;99.90;;;;;;5041121;28;20448;-89
2021/07/20 05:14:09;;;;;;;21.70;11.37;;;15.50;99.90;;;;;;5055056;28;20444;-88
2021/07/20 05:16:36;;;;;;;22.03;11.27;;;15.50;99.90;;;;;;5043229;28;20449;-88
2021/07/20 05:19:03;;;;;;;21.47;11.73;;;15.60;99.90;;;;;;5033734;28;20560;-89
2021/07/20 05:21:35;;;;;;;22.43;12.30;;;15.70;99.90;;;;;;5055739;28;20524;-88
2021/07/20 05:24:02;;;;;;;22.17;11.23;;;15.70;99.90;;;;;;5051902;28;20455;-89
2021/07/20 05:26:29;;;;;;;25.63;12.13;;;15.70;99.90;;;;;;5052752;28;20456;-89
2021/07/20 05:28:57;;;;;;;21.13;11.57;;;15.80;99.90;;;;;;5052027;28;20474;-89
2021/07/20 05:31:27;;;;;;;25.03;11.50;;;15.90;99.90;;;;;;5038325;28;20942;-88
2021/07/20 05:33:54;;;;;;;20.40;11.30;;;15.90;99.90;;;;;;5030823;28;20476;-89
2021/07/20 05:36:21;;;;;;;20.83;11.77;;;15.90;99.90;;;;;;5032401;28;20449;-89
2021/07/20 05:38:50;;;;;;;21.90;11.40;;;16.00;99.90;;;;;;5038144;28;20510;-89
2021/07/20 05:41:17;;;;;;;22.80;11.73;;;16.00;99.90;;;;;;5022451;28;20457;-90
2021/07/20 05:43:45;;;;;;;22.43;11.07;;;16.10;99.90;;;;;;5033458;28;20452;-89
2021/07/20 05:46:12;;;;;;;20.90;11.03;;;16.20;99.90;;;;;;5044050;28;20963;-90
2021/07/20 05:48:40;;;;;;;21.50;11.53;;;16.30;99.90;;;;;;5038927;28;20484;-88
2021/07/20 05:51:06;;;;;;;21.83;11.10;;;16.30;99.90;;;;;;5026146;28;20525;-88
2021/07/20 05:53:36;;;;;;;25.97;12.37;;;16.30;99.90;;;;;;5028816;28;20912;-87
2021/07/20 05:56:07;;;;;;;26.13;10.87;;;16.40;99.90;;;;;;5026749;28;20452;-87
2021/07/20 05:58:37;;;;;;;17.97;9.50;;;16.40;99.90;;;;;;5035856;28;20473;-87
2021/07/20 06:01:05;;;;;;;24.40;11.20;;;16.40;99.90;;;;;;5029660;28;20813;-86
2021/07/20 06:03:35;;;;;;;21.77;11.80;;;16.50;99.90;;;;;;5030552;28;20532;-87
2021/07/20 06:06:05;;;;;;;20.37;10.53;;;16.50;99.90;;;;;;5033571;28;20480;-88
2021/07/20 06:08:34;;;;;;;26.63;11.47;;;16.60;99.90;;;;;;4984920;28;1444752;-87
2021/07/20 06:11:05;;;;;;;23.57;11.63;;;16.60;99.90;;;;;;5030852;28;20535;-88
2021/07/20 06:13:34;;;;;;;27.43;11.73;;;16.70;99.90;;;;;;5038258;28;20500;-88
2021/07/20 06:16:01;;;;;;;21.50;12.37;;;16.90;99.90;;;;;;5030641;28;20432;-87
2021/07/20 06:18:29;;;;;;;23.13;11.00;;;16.90;99.90;;;;;;5034497;28;20478;-87
2021/07/20 06:20:58;;;;;;;25.33;12.07;;;17.00;99.90;;;;;;5024215;28;20471;-87
2021/07/20 06:23:28;;;;;;;21.80;11.17;;;17.10;99.90;;;;;;5015468;28;20454;-87
2021/07/20 06:25:59;;;;;;;20.20;9.67;;;17.10;99.90;;;;;;5031021;28;20445;-87
2021/07/20 06:28:27;;;;;;;23.50;10.37;;;17.20;99.90;;;;;;5033337;28;20535;-87
2021/07/20 06:30:55;;;;;;;22.70;9.57;;;17.30;99.90;;;;;;5037268;28;20539;-87
2021/07/20 06:33:23;;;;;;;18.40;8.43;;;17.30;99.90;;;;;;5039795;28;20865;-87
2021/07/20 06:35:50;;;;;;;19.00;8.80;;;17.40;99.90;;;;;;5036070;28;20838;-86
2021/07/20 06:38:19;;;;;;;18.43;7.80;;;17.50;99.90;;;;;;5036249;28;21004;-86
2021/07/20 06:40:49;;;;;;;17.87;8.13;;;17.50;99.90;;;;;;5029734;28;20956;-86
2021/07/20 06:43:18;;;;;;;15.50;7.30;;;17.50;99.90;;;;;;5028861;28;20476;-87
2021/07/20 06:45:48;;;;;;;17.50;7.50;;;17.60;99.90;;;;;;5024704;28;20537;-86
2021/07/20 06:48:17;;;;;;;16.03;6.87;;;17.80;99.90;;;;;;5026267;28;20828;-87
2021/07/20 06:50:45;;;;;;;18.77;7.40;;;17.70;99.90;;;;;;5032038;28;20458;-86
2021/07/20 06:53:13;;;;;;;17.80;6.23;;;17.80;99.90;;;;;;5027229;28;20456;-86
2021/07/20 06:55:47;;;;;;;17.10;6.00;;;17.90;99.90;;;;;;5029993;28;20452;-86
2021/07/20 06:58:14;;;;;;;17.77;6.50;;;18.00;99.90;;;;;;5029559;28;20527;-86
2021/07/20 07:00:43;;;;;;;16.27;7.17;;;18.10;99.90;;;;;;5032238;28;20478;-86
2021/07/20 07:03:12;;;;;;;16.00;6.87;;;18.10;99.90;;;;;;5024461;28;20453;-86
2021/07/20 07:05:41;;;;;;;16.90;6.47;;;18.30;99.90;;;;;;5024290;28;20465;-86
2021/07/20 07:08:08;;;;;;;21.00;6.97;;;18.40;99.90;;;;;;5031989;28;20457;-87
2021/07/20 07:10:36;;;;;;;19.27;8.97;;;18.40;99.90;;;;;;5028631;28;20484;-85
2021/07/20 07:13:07;;;;;;;15.97;7.00;;;18.40;99.90;;;;;;5030543;28;20457;-86
2021/07/20 07:15:37;;;;;;;20.20;8.03;;;18.30;99.90;;;;;;5036425;28;20460;-86
2021/07/20 07:18:05;;;;;;;17.30;6.50;;;18.30;99.90;;;;;;5041339;28;20526;-86
2021/07/20 07:20:33;;;;;;;18.77;7.87;;;18.50;99.90;;;;;;5027928;28;20473;-86
2021/07/20 07:23:03;;;;;;;16.23;7.23;;;18.60;99.90;;;;;;5026261;28;20837;-86
2021/07/20 07:25:30;;;;;;;17.17;6.63;;;18.60;99.90;;;;;;5029771;28;20452;-85
2021/07/20 07:27:58;;;;;;;17.00;6.30;;;18.70;99.90;;;;;;5034375;28;20463;-86
2021/07/20 07:30:26;;;;;;;16.07;5.53;;;18.80;99.90;;;;;;5024403;28;20487;-87
2021/07/20 07:32:54;;;;;;;22.73;6.77;;;18.90;99.90;;;;;;5034851;28;20467;-86
2021/07/20 07:35:35;;;;;;;18.30;7.13;;;19.00;99.90;;;;;;5030435;28;20552;-88
2021/07/20 07:38:03;;;;;;;16.27;6.10;;;19.00;99.90;;;;;;5032312;28;20806;-88
2021/07/20 07:40:33;;;;;;;18.27;6.20;;;19.00;99.90;;;;;;5033045;28;20484;-87
2021/07/20 07:43:03;;;;;;;17.87;6.63;;;19.10;99.90;;;;;;5033333;28;20448;-85
2021/07/20 07:45:30;;;;;;;16.20;6.57;;;19.30;99.90;;;;;;5033454;28;20445;-88
2021/07/20 07:47:58;;;;;;;19.23;7.33;;;19.40;99.90;;;;;;5032828;28;20453;-88
2021/07/20 07:50:25;;;;;;;19.30;6.60;;;19.50;99.90;;;;;;5032932;28;20471;-86
2021/07/20 07:52:55;;;;;;;20.17;7.73;;;19.50;99.90;;;;;;5032754;28;20520;-87
2021/07/20 07:55:24;;;;;;;20.80;7.67;;;19.60;99.90;;;;;;5034064;28;21040;-85
2021/07/20 07:57:51;;;;;;;21.30;7.70;;;19.70;99.90;;;;;;5032561;28;20457;-85
2021/07/20 08:00:19;;;;;;;18.00;6.80;;;20.00;99.90;;;;;;5033158;28;20489;-85
2021/07/20 08:02:51;;;;;;;21.47;5.93;;;20.00;99.90;;;;;;5033396;28;20453;-85
2021/07/20 08:05:21;;;;;;;18.60;6.50;;;20.20;99.90;;;;;;5030536;28;20848;-84
2021/07/20 08:07:51;;;;;;;17.13;6.63;;;20.40;99.90;;;;;;5030814;28;20452;-85
2021/07/20 08:10:22;;;;;;;16.27;5.63;;;20.40;99.90;;;;;;5023625;28;20479;-85
2021/07/20 08:12:52;;;;;;;16.90;5.60;;;20.70;99.90;;;;;;5029210;28;20495;-85
2021/07/20 08:15:20;;;;;;;22.03;6.30;;;20.90;99.90;;;;;;5027841;28;20449;-86
2021/07/20 08:17:51;;;;;;;19.23;6.40;;;21.20;99.90;;;;;;5029983;28;20458;-86
2021/07/20 08:20:19;;;;;;;16.70;5.90;;;21.40;99.90;;;;;;5024506;28;20934;-85
2021/07/20 08:22:47;;;;;;;18.00;6.00;;;21.70;99.90;;;;;;5029733;28;20532;-85
2021/07/20 08:25:24;;;;;;;21.13;6.40;;;21.90;99.90;;;;;;5031403;28;20460;-86
2021/07/20 08:27:57;;;;;;;17.47;5.97;;;21.80;99.90;;;;;;5026606;28;20463;-86
2021/07/20 08:30:25;;;;;;;17.70;5.73;;;21.80;99.90;;;;;;5034211;28;20553;-85
2021/07/20 08:32:55;;;;;;;20.37;7.10;;;22.00;99.90;;;;;;5037667;28;20498;-86
2021/07/20 08:35:25;;;;;;;34.70;6.50;;;22.10;99.90;;;;;;5034492;28;20461;-85
2021/07/20 08:37:53;;;;;;;47.53;6.77;;;22.10;99.90;;;;;;5031544;28;20447;-86
2021/07/20 08:40:33;;;;;;;53.47;8.40;;;22.00;99.90;;;;;;5031772;28;21087;-86
2021/07/20 08:43:14;;;;;;;90.17;55.90;;;21.80;99.90;;;;;;5032592;28;20886;-86
2021/07/20 08:45:59;;;;;;;220.43;203.97;;;21.80;99.90;;;;;;5033532;28;20459;-86
2021/07/20 08:48:34;;;;;;;182.73;166.40;;;22.10;99.90;;;;;;5033628;28;20520;-86
2021/07/20 08:51:05;;;;;;;325.10;304.73;;;22.20;99.90;;;;;;5035468;28;20534;-85
2021/07/20 08:53:37;;;;;;;232.70;216.23;;;22.30;99.90;;;;;;5035835;28;20472;-86
2021/07/20 08:56:05;;;;;;;210.73;193.33;;;22.20;99.90;;;;;;5039143;28;20455;-86
2021/07/20 08:58:38;;;;;;;228.03;210.67;;;21.90;99.90;;;;;;5035872;28;20519;-85
2021/07/20 09:01:11;;;;;;;297.57;278.30;;;21.60;99.90;;;;;;5036304;28;20945;-86
2021/07/20 09:03:55;;;;;;;195.57;180.40;;;21.60;99.90;;;;;;5036319;28;20449;-86
2021/07/20 09:06:28;;;;;;;92.40;73.37;;;21.80;99.90;;;;;;5035962;28;20987;-86
2021/07/20 09:09:01;;;;;;;280.30;262.00;;;22.10;99.90;;;;;;5036925;28;20999;-86
2021/07/20 09:11:34;;;;;;;1999.90;999.90;;;22.20;99.90;;;;;;5038109;28;20448;-85
2021/07/20 09:14:10;;;;;;;1999.90;999.90;;;21.90;99.90;;;;;;5036935;28;20684;-87
2021/07/20 09:16:40;;;;;;;1999.90;999.90;;;21.60;99.90;;;;;;5038421;28;20454;-85
2021/07/20 09:19:11;;;;;;;1999.90;999.90;;;21.40;99.90;;;;;;5038588;28;20580;-85
2021/07/20 09:21:43;;;;;;;131.40;119.27;;;21.30;99.90;;;;;;5037880;28;20452;-86
2021/07/20 09:24:15;;;;;;;237.97;220.37;;;21.40;99.90;;;;;;5038387;28;20463;-85
2021/07/20 09:26:47;;;;;;;1999.90;999.90;;;21.90;99.90;;;;;;5038776;28;20936;-85
2021/07/20 09:29:19;;;;;;;1999.90;999.90;;;22.40;99.90;;;;;;5036458;28;20487;-86
2021/07/20 09:32:00;;;;;;;1999.90;999.90;;;22.80;99.90;;;;;;5034603;28;20457;-85
2021/07/20 09:34:31;;;;;;;1999.90;999.90;;;23.10;99.90;;;;;;5037167;28;20591;-85
2021/07/20 09:37:02;;;;;;;1999.90;999.90;;;23.30;99.90;;;;;;5037759;28;20464;-85
2021/07/20 09:39:39;;;;;;;1999.90;999.90;;;23.10;99.90;;;;;;5035873;28;20495;-85
2021/07/20 09:42:16;;;;;;;1999.90;999.90;;;22.60;99.90;;;;;;5037921;28;20973;-85
2021/07/20 09:44:54;;;;;;;1999.90;999.90;;;22.30;99.90;;;;;;5039223;28;20448;-85
2021/07/20 09:47:26;;;;;;;1999.90;999.90;;;22.00;99.90;;;;;;5038696;28;20459;-86
2021/07/20 09:50:08;;;;;;;1999.90;999.90;;;22.20;99.90;;;;;;5028560;28;20484;-85
2021/07/20 09:52:52;;;;;;;1999.90;999.90;;;22.70;99.90;;;;;;5038664;28;20452;-86
2021/07/20 09:55:29;;;;;;;1999.90;999.90;;;23.10;99.90;;;;;;5030484;28;20444;-85
2021/07/20 09:58:00;;;;;;;1999.90;999.90;;;23.50;99.90;;;;;;5038287;28;20459;-86
2021/07/20 10:00:35;;;;;;;1999.90;999.90;;;23.70;99.90;;;;;;5038841;28;20493;-87
2021/07/20 10:03:13;;;;;;;1999.90;999.90;;;23.70;99.90;;;;;;5035770;28;20444;-85
2021/07/20 10:05:46;;;;;;;1999.90;999.90;;;23.80;99.90;;;;;;5029861;28;20453;-85
2021/07/20 10:08:24;;;;;;;1999.90;999.90;;;24.00;99.90;;;;;;5026284;28;20539;-84
2021/07/20 10:11:00;;;;;;;1999.90;999.90;;;24.10;99.90;;;;;;5029950;28;20536;-84
2021/07/20 10:13:32;;;;;;;1999.90;999.90;;;24.30;99.90;;;;;;5033845;28;20460;-86
2021/07/20 10:16:12;;;;;;;1999.90;999.90;;;24.30;99.90;;;;;;5037318;28;20485;-85
2021/07/20 10:18:46;;;;;;;101.70;51.13;;;24.60;99.90;;;;;;5035544;28;20464;-86
2021/07/20 10:21:18;;;;;;;1999.90;999.90;;;24.60;99.90;;;;;;5036013;28;20915;-84
2021/07/20 10:23:54;;;;;;;175.13;159.87;;;24.90;99.90;;;;;;5034860;28;20977;-85
2021/07/20 10:26:25;;;;;;;106.03;73.67;;;25.10;99.90;;;;;;5034124;28;20455;-85
2021/07/20 10:29:00;;;;;;;1999.90;999.90;;;24.50;99.90;;;;;;5034711;28;20472;-86
2021/07/20 10:31:34;;;;;;;1999.90;999.90;;;24.60;99.90;;;;;;5032350;28;20476;-85
2021/07/20 10:34:06;;;;;;;1368.43;688.80;;;24.90;99.90;;;;;;5034680;28;20448;-86
2021/07/20 10:36:42;;;;;;;1999.90;999.90;;;25.20;99.90;;;;;;5034775;28;20440;-85
2021/07/20 10:39:11;;;;;;;115.00;103.10;;;25.50;99.90;;;;;;5032851;28;20472;-86
2021/07/20 10:41:49;;;;;;;1999.90;999.90;;;25.60;99.90;;;;;;5034769;28;20463;-85
2021/07/20 10:44:23;;;;;;;120.70;90.60;;;25.70;99.90;;;;;;5035686;28;20452;-86
2021/07/20 10:46:54;;;;;;;112.77;82.80;;;26.00;99.90;;;;;;5038788;28;20455;-82
2021/07/20 10:49:30;;;;;;;102.03;82.70;;;26.20;99.90;;;;;;5040445;28;20471;-82
2021/07/20 10:52:04;;;;;;;88.93;64.00;;;26.20;99.90;;;;;;5041714;28;20839;-83
2021/07/20 10:54:38;;;;;;;74.17;25.27;;;26.00;99.90;;;;;;5041770;28;20447;-82
2021/07/20 10:57:11;;;;;;;100.37;86.43;;;25.50;99.90;;;;;;5043655;28;20453;-83
2021/07/20 10:59:52;;;;;;;100.73;77.23;;;25.20;99.90;;;;;;5044024;28;20492;-83
2021/07/20 11:02:31;;;;;;;80.00;37.00;;;24.90;99.90;;;;;;5043675;28;20467;-82
2021/07/20 11:05:00;;;;;;;126.40;112.80;;;24.60;99.90;;;;;;5047186;28;20464;-82
2021/07/20 11:07:30;;;;;;;127.53;114.93;;;24.40;99.90;;;;;;5046671;28;20459;-83
2021/07/20 11:10:05;;;;;;;110.13;72.83;;;24.60;99.90;;;;;;5033278;28;20476;-83
2021/07/20 11:12:35;;;;;;;100.40;84.10;;;25.00;99.90;;;;;;5046685;28;20459;-83
2021/07/20 11:15:04;;;;;;;159.50;145.57;;;25.40;99.90;;;;;;5046834;28;20449;-83
2021/07/20 11:17:36;;;;;;;66.33;15.37;;;25.70;99.90;;;;;;5046259;28;20477;-83
2021/07/20 11:20:13;;;;;;;236.13;219.20;;;25.90;99.90;;;;;;5045481;28;20511;-82
2021/07/20 11:22:42;;;;;;;261.87;244.33;;;26.10;99.90;;;;;;5046049;28;20459;-85
2021/07/20 11:25:11;;;;;;;52.40;8.07;;;26.20;99.90;;;;;;5039443;28;20449;-83
2021/07/20 11:27:42;;;;;;;50.50;7.20;;;26.20;99.90;;;;;;5038010;28;21174;-82
2021/07/20 11:30:10;;;;;;;41.47;6.90;;;26.40;99.90;;;;;;5039271;28;20500;-84
2021/07/20 11:32:41;;;;;;;51.27;7.63;;;26.50;99.90;;;;;;5047244;28;20531;-83
2021/07/20 11:35:13;;;;;;;47.33;7.63;;;26.50;99.90;;;;;;5044337;28;20447;-83
2021/07/20 11:37:43;;;;;;;54.57;7.20;;;26.20;99.90;;;;;;5038938;28;20454;-82
2021/07/20 11:40:15;;;;;;;71.67;26.87;;;25.90;99.90;;;;;;5047037;28;20556;-83
2021/07/20 11:42:49;;;;;;;80.63;38.03;;;25.50;99.90;;;;;;5041352;28;20449;-83
2021/07/20 11:45:18;;;;;;;114.53;102.70;;;25.00;99.90;;;;;;5045609;28;20540;-83
2021/07/20 11:47:51;;;;;;;100.90;84.70;;;24.90;99.90;;;;;;5045480;28;20453;-84
2021/07/20 11:50:29;;;;;;;75.33;38.00;;;25.40;99.90;;;;;;5036629;28;20500;-83
2021/07/20 11:53:03;;;;;;;64.70;22.40;;;25.80;99.90;;;;;;5040267;28;20479;-83
2021/07/20 11:55:39;;;;;;;39.27;6.60;;;26.30;99.90;;;;;;5042713;28;20438;-82
2021/07/20 11:58:53;;;;;;;59.10;14.90;;;26.60;99.90;;;;;;5040501;28;20476;-81
2021/07/20 12:01:57;;;;;;;45.53;7.10;;;27.10;99.90;;;;;;5034691;28;20488;-81
2021/07/20 12:04:40;;;;;;;26.23;6.00;;;27.40;99.90;;;;;;5044250;28;20450;-81
2021/07/20 12:07:15;;;;;;;36.73;6.73;;;27.40;99.90;;;;;;5054304;28;20444;-81
2021/07/20 12:10:09;;;;;;;31.03;6.17;;;27.40;99.90;;;;;;5043105;28;20488;-82
2021/07/20 12:12:54;;;;;;;40.67;6.13;;;27.50;99.90;;;;;;5045599;28;20441;-82
2021/07/20 12:15:31;;;;;;;37.37;5.90;;;27.70;99.90;;;;;;5037747;28;20543;-83
2021/07/20 12:18:00;;;;;;;37.20;6.93;;;27.30;99.90;;;;;;5056549;28;21192;-83
2021/07/20 12:20:28;;;;;;;35.50;6.17;;;26.60;99.90;;;;;;5044527;28;20606;-83
2021/07/20 12:22:57;;;;;;;33.33;6.93;;;26.20;99.90;;;;;;5042543;28;20519;-84
2021/07/20 12:25:27;;;;;;;35.57;6.07;;;26.30;99.90;;;;;;5037745;28;20461;-84
2021/07/20 12:27:56;;;;;;;30.73;6.47;;;26.70;99.90;;;;;;5036750;28;20521;-83
2021/07/20 12:30:24;;;;;;;29.80;6.70;;;27.00;99.90;;;;;;5044360;28;20469;-83
2021/07/20 12:32:55;;;;;;;37.50;6.10;;;27.40;99.90;;;;;;5044892;28;20445;-83
2021/07/20 12:35:24;;;;;;;24.23;6.53;;;27.70;99.90;;;;;;5046071;28;20468;-82
2021/07/20 12:38:08;;;;;;;25.83;6.13;;;27.80;98.90;;;;;;5051861;28;20504;-83
2021/07/20 12:40:37;;;;;;;31.70;5.53;;;27.90;99.90;;;;;;5048077;28;20504;-84
2021/07/20 12:43:09;;;;;;;22.13;5.83;;;28.00;99.90;;;;;;5043716;28;21013;-83
2021/07/20 12:45:40;;;;;;;28.57;6.20;;;28.20;99.90;;;;;;5042590;28;20463;-83
2021/07/20 12:48:21;;;;;;;43.60;5.80;;;28.40;99.90;;;;;;5043563;28;20505;-84
2021/07/20 12:50:48;;;;;;;24.30;5.93;;;28.70;99.90;;;;;;5042513;28;20444;-84
2021/07/20 12:53:17;;;;;;;43.93;5.60;;;28.70;99.90;;;;;;5043555;28;20440;-82
2021/07/20 12:55:45;;;;;;;19.03;5.97;;;28.60;99.90;;;;;;5039321;28;21052;-84
2021/07/20 12:58:12;;;;;;;23.20;4.87;;;28.50;99.60;;;;;;5039154;28;20481;-83